Time;durP1;ratioP1;P1;durP2;ratioP2;P2;SDS_P1;SDS_P2;PMS_P1;PMS_P2;Temp;Humidity;BMP_temperature;BMP_pressure;BME280_temperature;BME280_humidity;BME280_pressure;Samples;Min_cycle;Max_cycle;Signal;HPM_P1;HPM_P2
2021/07/19 00:00:50;;;;;;;;;;;;;;;23.28;66.19;100004.00;5033642;28;1065;-40
2021/07/19 00:03:36;;;;;;;;;;;;;;;23.25;66.25;99996.25;5032771;28;2054;-40
2021/07/19 00:06:06;;;;;;;;;;;;;;;23.27;66.21;100010.41;5033010;28;1888;-40
2021/07/19 00:08:35;;;;;;;;;;;;;;;23.19;66.63;100016.72;5030487;28;1383;-40
2021/07/19 00:11:05;;;;;;;;;;;;;;;23.20;66.50;100022.97;5033475;28;1141;-40
2021/07/19 00:13:35;;;;;;;;;;;;;;;23.19;66.50;100005.09;5032779;28;1887;-40
2021/07/19 00:16:11;;;;;;;;;;;;;;;23.40;66.02;100018.72;5033272;28;1998;-40
2021/07/19 00:18:43;;;;;;;;;;;;;;;23.51;65.20;100017.44;5033357;28;988;-40
2021/07/19 00:21:19;;;;;;;;;;;;;;;23.60;65.30;100010.13;5031654;28;1245;-40
2021/07/19 00:23:49;;;;;;;;;;;;;;;23.53;65.32;100006.47;5033105;28;1084;-40
2021/07/19 00:26:19;;;;;;;;;;;;;;;23.66;65.33;100011.25;5033148;28;1708;-40
2021/07/19 00:28:48;;;;;;;;;;;;;;;23.69;65.14;100018.97;5032769;28;1892;-40
2021/07/19 00:31:18;;;;;;;;;;;;;;;23.57;65.03;100022.09;5033061;28;1224;-40
2021/07/19 00:33:51;;;;;;;;;;;;;;;23.39;65.50;100019.72;5032869;28;1063;-40
2021/07/19 00:36:17;;;;;;;;;;;;;;;23.37;65.68;100013.69;5032425;28;2076;-40
2021/07/19 00:38:47;;;;;;;;;;;;;;;23.38;65.79;100007.28;5033719;28;1105;-40
2021/07/19 00:41:17;;;;;;;;;;;;;;;23.39;65.25;99998.16;5036268;28;1960;-40
2021/07/19 00:43:45;;;;;;;;;;;;;;;23.50;65.45;100001.44;5036517;28;1906;-40
2021/07/19 00:46:21;;;;;;;;;;;;;;;23.57;65.15;100013.16;5035763;28;1101;-40
2021/07/19 00:49:06;;;;;;;;;;;;;;;23.49;65.08;100016.78;5036877;28;1071;-40
2021/07/19 00:51:35;;;;;;;;;;;;;;;23.45;65.75;100015.47;5036835;28;1076;-40
2021/07/19 00:54:04;;;;;;;;;;;;;;;23.57;65.10;100019.41;5036779;28;1102;-40
2021/07/19 00:56:32;;;;;;;;;;;;;;;23.61;65.01;100015.31;5036147;28;1981;-41
2021/07/19 00:59:04;;;;;;;;;;;;;;;23.67;64.95;100015.59;5035188;28;1063;-40
2021/07/19 01:01:34;;;;;;;;;;;;;;;23.61;65.87;100003.69;5036329;28;1399;-40
2021/07/19 01:04:05;;;;;;;;;;;;;;;23.64;65.21;100008.72;5036094;28;1132;-40
2021/07/19 01:06:35;;;;;;;;;;;;;;;23.50;65.67;99993.34;5035370;28;1635;-40
2021/07/19 01:09:05;;;;;;;;;;;;;;;23.50;66.07;99987.97;5036482;28;1088;-40
2021/07/19 01:11:35;;;;;;;;;;;;;;;23.39;66.33;99990.06;5035927;28;1914;-40
2021/07/19 01:14:03;;;;;;;;;;;;;;;23.50;65.62;100006.84;5036034;28;1109;-40
2021/07/19 01:16:31;;;;;;;;;;;;;;;23.59;65.15;99992.22;5036281;28;1906;-40
2021/07/19 01:19:04;;;;;;;;;;;;;;;23.61;64.85;100003.69;5035924;28;1773;-40
2021/07/19 01:21:52;;;;;;;;;;;;;;;23.66;64.79;99998.56;5033642;28;1065;-40
2021/07/19 01:24:27;;;;;;;;;;;;;;;23.62;65.05;99986.47;5035727;28;1877;-40
2021/07/19 01:27:20;;;;;;;;;;;;;;;23.59;65.45;99986.84;5036080;28;1909;-40
2021/07/19 01:29:52;;;;;;;;;;;;;;;23.64;65.52;100003.31;5005772;28;1097;-40
2021/07/19 01:32:36;;;;;;;;;;;;;;;23.70;65.06;100018.78;5034384;28;1566;-41
2021/07/19 01:35:13;;;;;;;;;;;;;;;23.55;65.57;100004.41;5035966;28;1975;-40
2021/07/19 01:37:48;;;;;;;;;;;;;;;23.32;66.20;99999.91;5035205;28;1885;-40
2021/07/19 01:40:19;;;;;;;;;;;;;;;23.29;66.38;100023.72;5035616;28;1148;-40
2021/07/19 01:43:02;;;;;;;;;;;;;;;23.30;66.12;100023.53;5035596;28;1139;-40
2021/07/19 01:45:44;;;;;;;;;;;;;;;23.41;65.78;100025.78;5035713;28;1056;-40
2021/07/19 01:50:54;;;;;;;;;;;;;;;23.50;65.63;100009.53;5034636;28;2503;-40
2021/07/19 01:53:25;;;;;;;;;;;;;;;23.45;65.61;99998.44;4985557;28;1959;-40
2021/07/19 01:55:55;;;;;;;;;;;;;;;23.44;65.71;100024.59;5018143;28;1906;-40
2021/07/19 01:58:23;;;;;;;;;;;;;;;23.42;65.80;100016.69;5034960;28;1851;-40
2021/07/19 02:01:10;;;;;;;;;;;;;;;23.27;66.43;100023.91;5134359;23;3617;-42
2021/07/19 14:00:20;;;;;;;;;;;;;;;24.57;60.54;99864.03;5001058;28;1558;-38
2021/07/19 14:02:46;;;;;;;;;;;;;;;24.58;60.70;99854.88;5015907;28;1477;-38
2021/07/19 14:05:14;;;;;;;;;;;;;;;24.63;60.77;99856.16;5026383;28;1897;-38
2021/07/19 14:07:40;;;;;;;;;;;;;;;24.65;61.73;99848.69;5030440;28;1709;-38
2021/07/19 14:10:07;;;;;;;;;;;;;;;24.64;61.90;99842.47;5026272;28;1665;-37
2021/07/19 14:12:34;;;;;;;;;;;;;;;24.65;61.52;99844.16;5029205;28;1441;-38
2021/07/19 14:15:00;;;;;;;;;;;;;;;24.67;61.13;99843.94;5034944;28;1487;-38
2021/07/19 14:17:28;;;;;;;;;;;;;;;24.70;61.43;99857.91;5034920;28;1962;-38
2021/07/19 14:19:54;;;;;;;;;;;;;;;24.69;61.10;99842.72;5030962;28;1504;-38
2021/07/19 14:22:21;;;;;;;;;;;;;;;24.69;61.30;99839.16;5023442;28;1624;-38
2021/07/19 14:24:47;;;;;;;;;;;;;;;24.69;61.41;99831.06;5034741;28;1430;-37
2021/07/19 14:27:14;;;;;;;;;;;;;;;24.69;61.59;99847.28;5032775;28;1713;-38
2021/07/19 14:29:40;;;;;;;;;;;;;;;24.75;61.89;99846.50;5024589;28;1738;-38
2021/07/19 14:32:07;;;;;;;;;;;;;;;24.76;62.45;99829.25;5020134;28;1697;-38
2021/07/19 14:34:36;;;;;;;;;;;;;;;24.76;62.27;99846.31;5034672;28;1096;-38
2021/07/19 14:37:02;;;;;;;;;;;;;;;24.80;62.91;99830.53;5030892;28;1984;-38
2021/07/19 14:39:29;;;;;;;;;;;;;;;24.78;63.59;99841.53;5030737;28;1680;-38
2021/07/19 14:41:55;;;;;;;;;;;;;;;24.81;63.82;99837.63;5032773;28;1521;-38
2021/07/19 14:44:22;;;;;;;;;;;;;;;24.82;63.13;99836.56;5032872;28;1709;-38
2021/07/19 14:46:48;;;;;;;;;;;;;;;24.84;63.50;99821.00;5030725;28;1757;-38
2021/07/19 14:49:15;;;;;;;;;;;;;;;24.88;63.27;99849.31;5014827;28;1769;-38
2021/07/19 14:51:43;;;;;;;;;;;;;;;24.86;62.92;99829.75;5015976;28;1625;-38
2021/07/19 14:54:09;;;;;;;;;;;;;;;24.93;63.64;99827.06;5029269;28;1655;-38
2021/07/19 14:56:36;;;;;;;;;;;;;;;24.91;63.66;99813.78;5031805;28;1977;-38
2021/07/19 14:59:02;;;;;;;;;;;;;;;24.91;63.18;99831.84;5034182;28;1760;-38
2021/07/19 15:01:28;;;;;;;;;;;;;;;24.89;63.02;99820.38;5024638;28;1835;-38
2021/07/19 15:04:03;;;;;;;;;;;;;;;24.92;63.79;99811.91;5014230;28;1100;-38
2021/07/19 15:06:30;;;;;;;;;;;;;;;24.90;63.19;99809.38;5014557;28;1082;-38
2021/07/19 15:09:01;;;;;;;;;;;;;;;24.94;63.25;99809.81;5015302;28;1740;-38
2021/07/19 15:11:28;;;;;;;;;;;;;;;24.91;63.15;99789.44;5014923;28;1736;-38
2021/07/19 15:13:55;;;;;;;;;;;;;;;24.94;63.64;99810.66;5014380;28;1251;-38
2021/07/19 15:16:23;;;;;;;;;;;;;;;24.89;63.84;99810.44;5014494;28;1985;-37
2021/07/19 15:18:50;;;;;;;;;;;;;;;24.91;64.12;99811.06;5014493;28;1217;-38
2021/07/19 15:21:24;;;;;;;;;;;;;;;24.92;64.36;99803.78;5014115;28;1155;-38
2021/07/19 15:23:51;;;;;;;;;;;;;;;24.89;63.83;99805.03;5014075;28;1183;-38
2021/07/19 15:26:19;;;;;;;;;;;;;;;24.89;63.51;99804.16;5014699;28;1502;-38
2021/07/19 15:28:48;;;;;;;;;;;;;;;24.91;63.79;99815.63;5034249;28;1084;-38
2021/07/19 15:31:16;;;;;;;;;;;;;;;24.96;63.84;99807.75;5033572;28;1670;-38
2021/07/19 15:33:42;;;;;;;;;;;;;;;24.95;63.64;99801.53;5031370;28;1747;-38
2021/07/19 15:36:09;;;;;;;;;;;;;;;24.94;64.65;99799.00;5033292;28;1993;-38
2021/07/19 15:38:39;;;;;;;;;;;;;;;24.91;64.40;99784.03;5025999;28;1679;-38
2021/07/19 15:41:05;;;;;;;;;;;;;;;24.94;64.42;99791.72;5014825;28;1550;-38
2021/07/19 15:43:33;;;;;;;;;;;;;;;24.98;63.75;99800.28;5024220;28;1598;-38
2021/07/19 15:46:00;;;;;;;;;;;;;;;24.98;63.29;99784.88;5033288;28;1002;-38
2021/07/19 15:48:26;;;;;;;;;;;;;;;25.01;64.33;99795.31;5033613;28;1089;-38
2021/07/19 15:50:53;;;;;;;;;;;;;;;25.00;63.82;99790.94;5033667;28;1012;-38
2021/07/19 15:53:19;;;;;;;;;;;;;;;25.05;64.51;99805.72;5031836;28;1146;-38
2021/07/19 15:55:46;;;;;;;;;;;;;;;24.99;63.91;99800.09;5033402;28;1471;-38
2021/07/19 15:58:12;;;;;;;;;;;;;;;25.05;64.29;99795.75;5033064;28;1967;-38
2021/07/19 16:00:40;;;;;;;;;;;;;;;25.06;63.68;99805.53;5032179;28;1247;-38
2021/07/19 16:03:07;;;;;;;;;;;;;;;25.12;64.21;99812.03;5033478;28;1395;-38
2021/07/19 16:05:33;;;;;;;;;;;;;;;25.09;64.08;99804.28;5033275;28;1108;-38
2021/07/19 16:08:00;;;;;;;;;;;;;;;25.09;63.98;99790.75;5033210;28;1075;-38
2021/07/19 16:10:27;;;;;;;;;;;;;;;25.15;64.00;99798.09;5035647;28;1191;-38
2021/07/19 16:12:53;;;;;;;;;;;;;;;25.13;65.27;99789.34;5037342;28;1060;-38
2021/07/19 16:15:19;;;;;;;;;;;;;;;25.15;63.83;99788.13;5030869;28;1640;-38
2021/07/19 16:17:47;;;;;;;;;;;;;;;25.11;66.60;99789.53;5017602;28;1989;-38
2021/07/19 16:20:14;;;;;;;;;;;;;;;24.59;64.73;99799.81;5028521;28;1677;-37
2021/07/19 16:22:40;;;;;;;;;;;;;;;23.74;64.07;99809.53;5037437;28;1071;-37
2021/07/19 16:25:08;;;;;;;;;;;;;;;23.20;63.71;99807.19;5037644;28;1040;-38
2021/07/19 16:27:35;;;;;;;;;;;;;;;22.87;62.84;99818.28;5019040;28;1664;-38
2021/07/19 16:30:01;;;;;;;;;;;;;;;22.73;62.48;99821.78;5018314;28;1678;-38
2021/07/19 16:32:28;;;;;;;;;;;;;;;22.70;62.78;99816.75;5028490;28;1745;-37
2021/07/19 16:34:56;;;;;;;;;;;;;;;22.86;62.56;99804.97;5028224;28;1721;-38
2021/07/19 16:37:22;;;;;;;;;;;;;;;22.88;63.30;99808.31;5033761;28;1914;-38
2021/07/19 16:39:49;;;;;;;;;;;;;;;22.96;64.40;99821.72;5031085;28;1802;-38
2021/07/19 16:42:15;;;;;;;;;;;;;;;22.96;63.59;99825.28;5036758;28;1562;-38
2021/07/19 16:44:42;;;;;;;;;;;;;;;22.81;63.07;99824.41;5036973;28;1552;-38
2021/07/19 16:47:08;;;;;;;;;;;;;;;22.58;62.41;99825.31;5036645;28;1734;-38
2021/07/19 16:49:35;;;;;;;;;;;;;;;22.32;61.82;99835.59;5035250;28;1782;-38
2021/07/19 16:52:03;;;;;;;;;;;;;;;22.18;61.59;99850.66;5037153;28;1071;-38
2021/07/19 16:54:29;;;;;;;;;;;;;;;22.02;61.16;99848.91;5036970;28;962;-37
2021/07/19 16:56:56;;;;;;;;;;;;;;;21.95;60.96;99850.66;5023014;28;1977;-38
2021/07/19 16:59:22;;;;;;;;;;;;;;;21.87;60.77;99861.47;5031319;28;1493;-38
2021/07/19 17:01:49;;;;;;;;;;;;;;;21.76;60.65;99849.22;5035773;28;1278;-38
2021/07/19 17:04:15;;;;;;;;;;;;;;;21.73;60.28;99857.66;5036710;28;1026;-38
2021/07/19 17:06:42;;;;;;;;;;;;;;;21.66;60.17;99868.28;5033318;28;1442;-38
2021/07/19 17:09:10;;;;;;;;;;;;;;;21.60;59.62;99867.09;5036289;28;955;-38
2021/07/19 17:11:36;;;;;;;;;;;;;;;21.49;59.89;99874.72;5036570;28;986;-38
2021/07/19 17:14:03;;;;;;;;;;;;;;;21.54;58.98;99896.56;5033689;28;1697;-38
2021/07/19 17:16:30;;;;;;;;;;;;;;;21.53;58.51;99876.06;5035587;28;1983;-37
2021/07/19 17:18:56;;;;;;;;;;;;;;;21.48;58.16;99891.88;5034661;28;1787;-38
2021/07/19 17:21:22;;;;;;;;;;;;;;;21.32;57.93;99872.06;5034340;28;1714;-38
2021/07/19 17:23:49;;;;;;;;;;;;;;;21.31;58.76;99899.97;5033746;28;1708;-37
2021/07/19 17:26:17;;;;;;;;;;;;;;;21.23;57.75;99878.47;5032344;28;1551;-38
2021/07/19 17:28:44;;;;;;;;;;;;;;;21.32;57.39;99893.56;5028070;28;1630;-37
2021/07/19 17:31:11;;;;;;;;;;;;;;;21.45;58.56;99867.00;5017302;28;1703;-38
2021/07/19 17:33:37;;;;;;;;;;;;;;;21.57;58.98;99880.09;5017412;28;1686;-38
2021/07/19 17:36:04;;;;;;;;;;;;;;;21.68;60.15;99877.00;5017385;28;1917;-38
2021/07/19 17:38:30;;;;;;;;;;;;;;;21.88;61.30;99881.97;5015869;28;1977;-38
2021/07/19 17:41:01;;;;;;;;;;;;;;;21.95;61.39;99888.34;5030768;28;1695;-38
2021/07/19 17:43:29;;;;;;;;;;;;;;;22.01;61.90;99876.84;5035612;28;1565;-37
2021/07/19 17:45:56;;;;;;;;;;;;;;;21.97;61.47;99872.84;5035941;28;1352;-41
2021/07/19 17:48:22;;;;;;;;;;;;;;;21.96;61.50;99895.38;5034036;28;1280;-41
2021/07/19 17:50:49;;;;;;;;;;;;;;;21.99;61.59;99885.09;5033259;28;1667;-40
2021/07/19 17:53:16;;;;;;;;;;;;;;;21.94;62.49;99892.84;5035631;28;1199;-40
2021/07/19 17:55:45;;;;;;;;;;;;;;;22.05;61.71;99899.72;5035034;28;1316;-40
2021/07/19 17:58:11;;;;;;;;;;;;;;;22.24;62.07;99888.53;5030342;28;1979;-40
2021/07/19 18:00:39;;;;;;;;;;;;;;;22.42;62.01;99892.75;5031054;28;1336;-41
2021/07/19 18:03:08;;;;;;;;;;;;;;;22.48;61.78;99892.03;5031598;28;1530;-41
2021/07/19 18:05:36;;;;;;;;;;;;;;;22.52;61.85;99871.84;5033487;28;1387;-41
2021/07/19 18:08:03;;;;;;;;;;;;;;;22.60;61.44;99885.25;5030965;28;1360;-41
2021/07/19 18:10:31;;;;;;;;;;;;;;;22.68;61.92;99905.91;5033985;28;1231;-40
2021/07/19 18:12:57;;;;;;;;;;;;;;;22.67;62.67;99904.22;5028966;28;1540;-41
2021/07/19 18:15:24;;;;;;;;;;;;;;;22.73;62.54;99925.03;5033586;28;1827;-40
2021/07/19 18:17:52;;;;;;;;;;;;;;;22.72;66.08;99912.59;5033445;28;1969;-40
2021/07/19 18:20:19;;;;;;;;;;;;;;;22.57;66.10;99917.09;5034231;28;1159;-40
2021/07/19 18:23:01;;;;;;;;;;;;;;;22.51;67.33;99924.03;5034668;28;1255;-40
2021/07/19 18:25:38;;;;;;;;;;;;;;;22.49;67.98;99926.06;5034414;28;1067;-40
2021/07/19 18:31:07;;;;;;;;;;;;;;;22.97;71.32;99931.25;5035656;28;1196;-40
2021/07/19 18:33:43;;;;;;;;;;;;;;;23.15;71.08;99929.09;5033954;28;1591;-40
2021/07/19 18:36:10;;;;;;;;;;;;;;;23.26;71.88;99941.31;5047241;28;1369;-40
2021/07/19 18:38:40;;;;;;;;;;;;;;;23.47;71.66;99945.13;5046376;28;1902;-40
2021/07/19 18:41:11;;;;;;;;;;;;;;;23.63;70.63;99928.75;5035258;28;2693;-40
2021/07/19 18:43:37;;;;;;;;;;;;;;;23.77;69.82;99936.03;5034428;28;1531;-38
2021/07/19 18:46:11;;;;;;;;;;;;;;;23.90;69.25;99932.69;5032988;28;1437;-37
2021/07/19 18:48:47;;;;;;;;;;;;;;;23.98;69.10;99931.75;5033507;28;1406;-38
2021/07/19 18:51:13;;;;;;;;;;;;;;;24.12;68.44;99957.06;5028938;28;1835;-38
2021/07/19 18:53:43;;;;;;;;;;;;;;;24.11;68.47;99945.41;5034023;28;1444;-38
2021/07/19 18:56:10;;;;;;;;;;;;;;;24.15;68.27;99946.72;5041528;28;1460;-38
2021/07/19 18:58:38;;;;;;;;;;;;;;;24.19;67.96;99952.56;5032714;28;1906;-38
2021/07/19 19:01:05;;;;;;;;;;;;;;;24.26;68.53;99958.91;5033476;28;1390;-37
2021/07/19 19:06:17;;;;;;;;;;;;;;;24.32;68.48;99968.09;5019391;28;1569;-38
2021/07/19 19:08:48;;;;;;;;;;;;;;;24.35;68.39;99967.72;5024817;28;1638;-38
2021/07/19 19:11:27;;;;;;;;;;;;;;;24.38;67.93;99962.78;5033690;28;1394;-37
2021/07/19 19:13:57;;;;;;;;;;;;;;;24.37;68.55;99958.41;5033201;28;1796;-37
2021/07/19 19:16:25;;;;;;;;;;;;;;;24.38;67.65;99957.38;5031128;28;1886;-38
2021/07/19 19:18:51;;;;;;;;;;;;;;;24.40;68.14;99959.88;5033260;28;1972;-38
2021/07/19 19:21:23;;;;;;;;;;;;;;;24.45;67.54;99960.13;5033271;28;1264;-38
2021/07/19 19:24:05;;;;;;;;;;;;;;;24.46;68.16;99958.28;5033127;28;1175;-38
2021/07/19 19:29:14;;;;;;;;;;;;;;;24.50;67.78;99968.53;5033229;28;2421;-38
2021/07/19 19:31:43;;;;;;;;;;;;;;;24.50;68.62;99968.53;5033200;28;1691;-38
2021/07/19 19:34:10;;;;;;;;;;;;;;;24.65;68.39;99967.66;5026117;28;1843;-37
2021/07/19 19:36:38;;;;;;;;;;;;;;;24.65;67.89;99965.81;5047467;28;1376;-37
2021/07/19 19:39:07;;;;;;;;;;;;;;;24.61;68.13;99954.53;5051729;28;1887;-38
2021/07/19 19:41:34;;;;;;;;;;;;;;;24.64;68.24;99971.41;5052616;28;1126;-37
2021/07/19 19:44:00;;;;;;;;;;;;;;;24.62;68.61;99966.19;5053147;28;1087;-38
2021/07/19 19:46:27;;;;;;;;;;;;;;;24.60;68.00;99977.19;5039994;28;1841;-37
2021/07/19 19:48:53;;;;;;;;;;;;;;;24.59;68.03;99962.00;5025008;28;1956;-38
2021/07/19 19:51:20;;;;;;;;;;;;;;;24.62;68.35;99974.28;5013739;28;1169;-37
2021/07/19 19:53:48;;;;;;;;;;;;;;;24.59;67.06;99962.00;5013902;28;1100;-38
2021/07/19 19:56:14;;;;;;;;;;;;;;;24.60;67.49;99971.78;5013526;28;1406;-37
2021/07/19 19:58:40;;;;;;;;;;;;;;;24.60;67.95;99976.34;5023132;28;1981;-38
2021/07/19 20:01:08;;;;;;;;;;;;;;;24.57;67.31;99965.91;5033394;28;1124;-38
2021/07/19 20:03:35;;;;;;;;;;;;;;;24.62;67.68;99990.50;5033548;28;1084;-38
2021/07/19 20:06:02;;;;;;;;;;;;;;;24.60;66.79;99985.28;5032968;28;1943;-38
2021/07/19 20:08:28;;;;;;;;;;;;;;;24.63;67.87;99975.13;5033232;28;1083;-37
2021/07/19 20:10:56;;;;;;;;;;;;;;;24.60;67.03;99985.28;5033464;28;1883;-38
2021/07/19 20:13:24;;;;;;;;;;;;;;;24.65;66.76;99990.13;5013479;28;1138;-38
2021/07/19 20:15:50;;;;;;;;;;;;;;;24.58;67.23;99973.81;5013446;28;1123;-38
2021/07/19 20:18:17;;;;;;;;;;;;;;;24.63;66.57;100002.16;5013688;28;1902;-38
2021/07/19 20:20:43;;;;;;;;;;;;;;;24.63;66.64;99983.22;5013694;28;1081;-38
2021/07/19 20:23:10;;;;;;;;;;;;;;;24.65;66.59;99983.88;5017318;28;1865;-38
2021/07/19 20:25:36;;;;;;;;;;;;;;;24.62;66.14;99979.69;5033472;28;1038;-38
2021/07/19 20:28:05;;;;;;;;;;;;;;;24.70;66.77;100006.59;5033063;28;1132;-38
2021/07/19 20:30:32;;;;;;;;;;;;;;;24.65;66.32;99987.44;5031763;28;1871;-38
2021/07/19 20:32:59;;;;;;;;;;;;;;;24.65;66.22;99973.06;5031906;28;1986;-38
2021/07/19 20:35:26;;;;;;;;;;;;;;;24.65;67.38;99986.56;5033090;28;1137;-38
2021/07/19 20:37:53;;;;;;;;;;;;;;;24.64;66.67;99979.50;5033283;28;1975;-37
2021/07/19 20:40:20;;;;;;;;;;;;;;;24.68;66.83;99989.75;5033346;28;986;-38
2021/07/19 20:42:47;;;;;;;;;;;;;;;24.71;65.92;99999.31;5021299;28;1908;-38
2021/07/19 20:45:16;;;;;;;;;;;;;;;24.69;66.48;99991.44;5013445;28;1142;-38
2021/07/19 20:47:43;;;;;;;;;;;;;;;24.66;66.34;99994.50;5013164;28;1154;-38
2021/07/19 20:50:11;;;;;;;;;;;;;;;24.67;66.54;100008.84;5013509;28;1095;-38
2021/07/19 20:52:38;;;;;;;;;;;;;;;24.71;65.96;100037.19;5014598;28;1880;-38
2021/07/19 20:55:06;;;;;;;;;;;;;;;24.76;66.29;100068.03;5013099;28;1086;-38
2021/07/19 20:57:32;;;;;;;;;;;;;;;24.71;65.96;100056.09;5016543;28;1902;-38
2021/07/19 20:59:59;;;;;;;;;;;;;;;24.67;66.34;100050.25;5016761;28;1162;-38
2021/07/19 21:02:27;;;;;;;;;;;;;;;24.66;65.83;100058.56;5016480;28;1320;-38
2021/07/19 21:04:53;;;;;;;;;;;;;;;24.72;65.81;100068.59;5017730;28;1865;-38
2021/07/19 21:07:20;;;;;;;;;;;;;;;24.70;65.57;100057.16;5016916;28;1085;-38
2021/07/19 21:09:46;;;;;;;;;;;;;;;24.69;66.27;100079.78;5016581;28;1111;-38
2021/07/19 21:12:14;;;;;;;;;;;;;;;24.73;66.36;100089.19;5017602;28;1928;-38
2021/07/19 21:14:40;;;;;;;;;;;;;;;24.71;65.91;100092.09;5016740;28;1009;-38
2021/07/19 21:17:07;;;;;;;;;;;;;;;24.71;66.74;100102.06;5016730;28;1028;-38
2021/07/19 21:19:35;;;;;;;;;;;;;;;24.69;66.98;100096.00;5016511;28;1902;-38
2021/07/19 21:22:01;;;;;;;;;;;;;;;24.70;68.59;100111.22;5032204;28;1894;-38
2021/07/19 21:24:28;;;;;;;;;;;;;;;24.63;68.69;100099.47;5036182;28;1873;-38
2021/07/19 21:26:54;;;;;;;;;;;;;;;24.53;70.32;100103.31;5036290;28;1085;-38
2021/07/19 21:29:21;;;;;;;;;;;;;;;24.48;69.64;100099.47;5035987;28;1119;-38
2021/07/19 21:31:48;;;;;;;;;;;;;;;24.42;70.79;100099.19;5034833;28;1960;-38
2021/07/19 21:34:14;;;;;;;;;;;;;;;24.45;70.66;100103.38;5035860;28;1111;-38
2021/07/19 21:36:42;;;;;;;;;;;;;;;24.38;71.39;100103.28;5035561;28;1868;-38
2021/07/19 21:39:09;;;;;;;;;;;;;;;24.39;71.04;100113.09;5035962;28;1943;-38
2021/07/19 21:41:35;;;;;;;;;;;;;;;24.30;70.73;100099.84;5036427;28;1279;-38
2021/07/19 21:44:02;;;;;;;;;;;;;;;24.25;71.17;100127.41;5034635;28;1942;-38
2021/07/19 21:46:28;;;;;;;;;;;;;;;24.29;71.32;100104.44;5015849;28;1080;-38
2021/07/19 21:48:54;;;;;;;;;;;;;;;24.29;71.65;100108.97;5016049;28;1142;-38
2021/07/19 21:51:21;;;;;;;;;;;;;;;24.26;70.92;100098.56;5015756;28;1071;-38
2021/07/19 21:53:49;;;;;;;;;;;;;;;24.32;71.39;100103.22;5015943;28;1028;-38
2021/07/19 21:56:15;;;;;;;;;;;;;;;24.28;71.63;100102.75;5015936;28;1085;-38
2021/07/19 21:58:42;;;;;;;;;;;;;;;24.31;71.86;100113.19;5020393;28;1976;-38
2021/07/19 22:01:08;;;;;;;;;;;;;;;24.25;71.04;100102.28;5035309;28;1392;-38
2021/07/19 22:03:38;;;;;;;;;;;;;;;24.29;71.16;100108.97;5035298;28;1170;-38
2021/07/19 22:06:04;;;;;;;;;;;;;;;24.34;70.41;100112.78;5035618;28;1003;-38
2021/07/19 22:08:31;;;;;;;;;;;;;;;24.36;70.89;100115.31;5035638;28;1034;-38
2021/07/19 22:10:59;;;;;;;;;;;;;;;24.31;70.99;100123.13;5035610;28;969;-38
2021/07/19 22:13:25;;;;;;;;;;;;;;;24.30;71.43;100126.88;5026275;28;1719;-37
2021/07/19 22:15:52;;;;;;;;;;;;;;;24.28;71.14;100123.53;5015666;28;1111;-38
2021/07/19 22:18:19;;;;;;;;;;;;;;;24.30;70.70;100126.88;5015483;28;1979;-37
2021/07/19 22:20:46;;;;;;;;;;;;;;;24.32;71.48;100138.34;5015403;28;1077;-38
2021/07/19 22:23:13;;;;;;;;;;;;;;;24.31;70.88;100142.91;5018379;28;1937;-38
2021/07/19 22:25:40;;;;;;;;;;;;;;;24.32;70.79;100135.63;5035253;28;1015;-38
2021/07/19 22:28:08;;;;;;;;;;;;;;;24.35;70.45;100127.13;5035170;28;1074;-38
2021/07/19 22:30:35;;;;;;;;;;;;;;;24.37;70.88;100135.91;5034825;28;1144;-38
2021/07/19 22:33:02;;;;;;;;;;;;;;;24.38;70.74;100141.13;5019393;28;2054;-38
2021/07/19 22:35:30;;;;;;;;;;;;;;;24.33;71.39;100140.88;5016142;28;966;-38
2021/07/19 22:37:57;;;;;;;;;;;;;;;24.27;71.60;100138.03;5015548;28;1086;-38
2021/07/19 22:40:23;;;;;;;;;;;;;;;24.29;71.48;100136.00;5015085;28;1992;-37
2021/07/19 22:42:50;;;;;;;;;;;;;;;24.32;71.67;100136.47;5015119;28;998;-38
2021/07/19 22:45:19;;;;;;;;;;;;;;;24.15;72.03;100143.06;5014770;28;1134;-37
2021/07/19 22:47:46;;;;;;;;;;;;;;;24.05;72.06;100129.81;5034526;28;1866;-38
2021/07/19 22:50:14;;;;;;;;;;;;;;;24.00;72.52;100143.06;5034764;28;1043;-37
2021/07/19 22:52:40;;;;;;;;;;;;;;;24.02;72.19;100154.50;5034745;28;1788;-38
2021/07/19 22:55:08;;;;;;;;;;;;;;;23.96;72.64;100147.16;5034873;28;1081;-38
2021/07/19 22:57:34;;;;;;;;;;;;;;;24.07;71.83;100137.75;5034829;28;1034;-37
2021/07/19 23:00:01;;;;;;;;;;;;;;;24.13;72.03;100150.50;5034223;28;1975;-38
2021/07/19 23:02:29;;;;;;;;;;;;;;;24.18;72.31;100157.03;5034217;28;1310;-38
2021/07/19 23:04:55;;;;;;;;;;;;;;;24.27;71.45;100154.25;5034512;28;1070;-38
2021/07/19 23:07:22;;;;;;;;;;;;;;;24.16;71.96;100151.00;5021102;28;1962;-38
2021/07/19 23:09:48;;;;;;;;;;;;;;;24.06;71.76;100155.81;5014342;28;1154;-38
2021/07/19 23:12:14;;;;;;;;;;;;;;;24.10;71.71;100127.41;5014236;28;1075;-38
2021/07/19 23:14:42;;;;;;;;;;;;;;;24.21;71.67;100154.00;5015675;28;1886;-38
2021/07/19 23:17:09;;;;;;;;;;;;;;;24.28;71.71;100167.59;5014755;28;1065;-38
2021/07/19 23:19:37;;;;;;;;;;;;;;;24.34;71.51;100152.50;5013600;28;1906;-38
2021/07/19 23:22:03;;;;;;;;;;;;;;;24.37;70.95;100155.69;5014163;28;999;-38
2021/07/19 23:24:30;;;;;;;;;;;;;;;24.34;70.56;100147.09;5028509;28;1990;-37
2021/07/19 23:26:56;;;;;;;;;;;;;;;24.38;70.52;100151.09;5033994;28;1096;-38
2021/07/19 23:29:23;;;;;;;;;;;;;;;24.34;71.29;100153.34;5033762;28;1155;-38
2021/07/19 23:31:49;;;;;;;;;;;;;;;24.39;71.03;100163.56;5033075;28;1887;-38
2021/07/19 23:34:16;;;;;;;;;;;;;;;24.41;70.48;100156.13;5034170;28;1188;-38
2021/07/19 23:36:43;;;;;;;;;;;;;;;24.28;70.71;100151.38;5034008;28;1002;-38
2021/07/19 23:39:10;;;;;;;;;;;;;;;24.31;70.99;100150.16;5033571;28;1905;-38
2021/07/19 23:41:36;;;;;;;;;;;;;;;24.29;70.80;100141.41;5034147;28;1081;-38
2021/07/19 23:44:03;;;;;;;;;;;;;;;24.27;71.08;100146.16;5033926;28;1061;-38
2021/07/19 23:46:30;;;;;;;;;;;;;;;24.11;71.03;100148.00;5023707;28;1900;-38
2021/07/19 23:48:56;;;;;;;;;;;;;;;24.00;71.17;100152.00;5013768;28;1064;-38
2021/07/19 23:51:23;;;;;;;;;;;;;;;23.92;71.10;100135.03;5013950;28;1111;-38
2021/07/19 23:53:50;;;;;;;;;;;;;;;24.01;71.36;100144.72;5015048;28;1963;-38
2021/07/19 23:56:18;;;;;;;;;;;;;;;23.89;72.01;100135.38;5033390;28;1151;-38
2021/07/19 23:58:45;;;;;;;;;;;;;;;23.86;72.03;100124.97;5033634;28;1971;-38
